<?xml version="1.0" encoding="UTF-8" standalone="no" ?>
<gpx xmlns="http://www.topografix.com/GPX/1/1" xmlns:xsi="http://www.w3.org/2001/XMLSchema-instance" xsi:schemaLocation="http://www.topografix.com/GPX/1/1 http://www.topografix.com/GPX/1/1/gpx.xsd" version="1.1" creator="VisuGPX - https://www.visugpx.com">
  <metadata>
    <name>la petite tour lac d'Allos</name>
    <desc><![CDATA[petite Tour en face du refuge du Lac d'allos .

depuis le refuge de droite à gauche

petite tour
grande tour
la tour noire
la tour orientale
]]></desc>
  </metadata>
  <trk>
    <name><![CDATA[lac_Allos]]></name>
    <trkseg>
      <trkpt lat="44.22659" lon="6.70202">
        <ele>2309.6</ele>
        <time>2017-08-12T12:18:04Z</time>
      </trkpt>
      <trkpt lat="44.22659" lon="6.70202">
        <ele>2309.8</ele>
        <time>2017-08-12T12:18:05Z</time>
      </trkpt>
      <trkpt lat="44.22671" lon="6.70208">
        <ele>2310</ele>
        <time>2017-08-12T12:18:54Z</time>
      </trkpt>
      <trkpt lat="44.2268" lon="6.70203">
        <ele>2312.6</ele>
        <time>2017-08-12T12:19:22Z</time>
      </trkpt>
      <trkpt lat="44.22689" lon="6.70204">
        <ele>2313</ele>
        <time>2017-08-12T12:19:33Z</time>
      </trkpt>
      <trkpt lat="44.22699" lon="6.70204">
        <ele>2313.1</ele>
        <time>2017-08-12T12:19:40Z</time>
      </trkpt>
      <trkpt lat="44.2271" lon="6.70204">
        <ele>2313.2</ele>
        <time>2017-08-12T12:19:45Z</time>
      </trkpt>
      <trkpt lat="44.22693" lon="6.70211">
        <ele>2313.3</ele>
        <time>2017-08-12T12:20:28Z</time>
      </trkpt>
      <trkpt lat="44.22682" lon="6.70212">
        <ele>2313.3</ele>
        <time>2017-08-12T12:20:29Z</time>
      </trkpt>
      <trkpt lat="44.22672" lon="6.70219">
        <ele>2313.3</ele>
        <time>2017-08-12T12:20:32Z</time>
      </trkpt>
      <trkpt lat="44.22662" lon="6.70222">
        <ele>2313.3</ele>
        <time>2017-08-12T12:20:35Z</time>
      </trkpt>
      <trkpt lat="44.22665" lon="6.7021">
        <ele>2313.3</ele>
        <time>2017-08-12T12:20:50Z</time>
      </trkpt>
      <trkpt lat="44.22664" lon="6.70223">
        <ele>2313.2</ele>
        <time>2017-08-12T12:21:01Z</time>
      </trkpt>
      <trkpt lat="44.22675" lon="6.70212">
        <ele>2313.2</ele>
        <time>2017-08-12T12:21:10Z</time>
      </trkpt>
      <trkpt lat="44.22685" lon="6.70203">
        <ele>2313.2</ele>
        <time>2017-08-12T12:21:12Z</time>
      </trkpt>
      <trkpt lat="44.22696" lon="6.70197">
        <ele>2313.1</ele>
        <time>2017-08-12T12:21:16Z</time>
      </trkpt>
      <trkpt lat="44.22706" lon="6.70203">
        <ele>2313</ele>
        <time>2017-08-12T12:21:20Z</time>
      </trkpt>
      <trkpt lat="44.22691" lon="6.70209">
        <ele>2313</ele>
        <time>2017-08-12T12:21:24Z</time>
      </trkpt>
      <trkpt lat="44.22681" lon="6.70209">
        <ele>2312.9</ele>
        <time>2017-08-12T12:21:27Z</time>
      </trkpt>
      <trkpt lat="44.22673" lon="6.70201">
        <ele>2312.7</ele>
        <time>2017-08-12T12:21:53Z</time>
      </trkpt>
      <trkpt lat="44.22666" lon="6.70193">
        <ele>2312.8</ele>
        <time>2017-08-12T12:22:17Z</time>
      </trkpt>
      <trkpt lat="44.22656" lon="6.70188">
        <ele>2313.1</ele>
        <time>2017-08-12T12:22:29Z</time>
      </trkpt>
      <trkpt lat="44.22647" lon="6.70185">
        <ele>2313.3</ele>
        <time>2017-08-12T12:22:38Z</time>
      </trkpt>
      <trkpt lat="44.22638" lon="6.70178">
        <ele>2313.7</ele>
        <time>2017-08-12T12:22:47Z</time>
      </trkpt>
      <trkpt lat="44.22632" lon="6.70168">
        <ele>2313.9</ele>
        <time>2017-08-12T12:22:56Z</time>
      </trkpt>
      <trkpt lat="44.22624" lon="6.70159">
        <ele>2314.1</ele>
        <time>2017-08-12T12:23:05Z</time>
      </trkpt>
      <trkpt lat="44.22617" lon="6.70151">
        <ele>2314.2</ele>
        <time>2017-08-12T12:23:15Z</time>
      </trkpt>
      <trkpt lat="44.2261" lon="6.70142">
        <ele>2314.2</ele>
        <time>2017-08-12T12:23:28Z</time>
      </trkpt>
      <trkpt lat="44.22602" lon="6.70135">
        <ele>2314.2</ele>
        <time>2017-08-12T12:23:55Z</time>
      </trkpt>
      <trkpt lat="44.22594" lon="6.70126">
        <ele>2315.1</ele>
        <time>2017-08-12T12:24:08Z</time>
      </trkpt>
      <trkpt lat="44.22586" lon="6.7012">
        <ele>2316.5</ele>
        <time>2017-08-12T12:24:21Z</time>
      </trkpt>
      <trkpt lat="44.22579" lon="6.70111">
        <ele>2318.6</ele>
        <time>2017-08-12T12:24:32Z</time>
      </trkpt>
      <trkpt lat="44.22572" lon="6.70102">
        <ele>2321.7</ele>
        <time>2017-08-12T12:24:45Z</time>
      </trkpt>
      <trkpt lat="44.22563" lon="6.70097">
        <ele>2324</ele>
        <time>2017-08-12T12:24:57Z</time>
      </trkpt>
      <trkpt lat="44.22556" lon="6.70091">
        <ele>2325.7</ele>
        <time>2017-08-12T12:25:09Z</time>
      </trkpt>
      <trkpt lat="44.22548" lon="6.70082">
        <ele>2327.2</ele>
        <time>2017-08-12T12:25:22Z</time>
      </trkpt>
      <trkpt lat="44.22544" lon="6.7007">
        <ele>2328.9</ele>
        <time>2017-08-12T12:25:32Z</time>
      </trkpt>
      <trkpt lat="44.22538" lon="6.7006">
        <ele>2330.4</ele>
        <time>2017-08-12T12:25:42Z</time>
      </trkpt>
      <trkpt lat="44.2253" lon="6.70052">
        <ele>2331.7</ele>
        <time>2017-08-12T12:25:52Z</time>
      </trkpt>
      <trkpt lat="44.22522" lon="6.70045">
        <ele>2334.6</ele>
        <time>2017-08-12T12:26:14Z</time>
      </trkpt>
      <trkpt lat="44.22513" lon="6.70043">
        <ele>2336.3</ele>
        <time>2017-08-12T12:26:26Z</time>
      </trkpt>
      <trkpt lat="44.22503" lon="6.70041">
        <ele>2337.9</ele>
        <time>2017-08-12T12:26:38Z</time>
      </trkpt>
      <trkpt lat="44.22494" lon="6.70039">
        <ele>2339.7</ele>
        <time>2017-08-12T12:26:51Z</time>
      </trkpt>
      <trkpt lat="44.22486" lon="6.70031">
        <ele>2341.2</ele>
        <time>2017-08-12T12:27:02Z</time>
      </trkpt>
      <trkpt lat="44.22477" lon="6.70028">
        <ele>2342.3</ele>
        <time>2017-08-12T12:27:12Z</time>
      </trkpt>
      <trkpt lat="44.2247" lon="6.70021">
        <ele>2343.5</ele>
        <time>2017-08-12T12:27:23Z</time>
      </trkpt>
      <trkpt lat="44.2246" lon="6.70022">
        <ele>2345.2</ele>
        <time>2017-08-12T12:27:37Z</time>
      </trkpt>
      <trkpt lat="44.22452" lon="6.70016">
        <ele>2348.2</ele>
        <time>2017-08-12T12:27:56Z</time>
      </trkpt>
      <trkpt lat="44.22443" lon="6.70017">
        <ele>2351.8</ele>
        <time>2017-08-12T12:28:14Z</time>
      </trkpt>
      <trkpt lat="44.22434" lon="6.70011">
        <ele>2354.8</ele>
        <time>2017-08-12T12:28:28Z</time>
      </trkpt>
      <trkpt lat="44.22427" lon="6.70001">
        <ele>2357.9</ele>
        <time>2017-08-12T12:28:43Z</time>
      </trkpt>
      <trkpt lat="44.22419" lon="6.69996">
        <ele>2360.6</ele>
        <time>2017-08-12T12:28:58Z</time>
      </trkpt>
      <trkpt lat="44.22412" lon="6.69988">
        <ele>2363.7</ele>
        <time>2017-08-12T12:29:16Z</time>
      </trkpt>
      <trkpt lat="44.22402" lon="6.69986">
        <ele>2367.3</ele>
        <time>2017-08-12T12:29:37Z</time>
      </trkpt>
      <trkpt lat="44.22393" lon="6.69988">
        <ele>2369.4</ele>
        <time>2017-08-12T12:29:47Z</time>
      </trkpt>
      <trkpt lat="44.22383" lon="6.69986">
        <ele>2371.1</ele>
        <time>2017-08-12T12:29:57Z</time>
      </trkpt>
      <trkpt lat="44.22374" lon="6.69985">
        <ele>2373.4</ele>
        <time>2017-08-12T12:30:10Z</time>
      </trkpt>
      <trkpt lat="44.22366" lon="6.69978">
        <ele>2374.8</ele>
        <time>2017-08-12T12:30:21Z</time>
      </trkpt>
      <trkpt lat="44.22358" lon="6.69971">
        <ele>2375.8</ele>
        <time>2017-08-12T12:30:32Z</time>
      </trkpt>
      <trkpt lat="44.2235" lon="6.69963">
        <ele>2377.6</ele>
        <time>2017-08-12T12:30:44Z</time>
      </trkpt>
      <trkpt lat="44.22341" lon="6.6996">
        <ele>2380.1</ele>
        <time>2017-08-12T12:30:57Z</time>
      </trkpt>
      <trkpt lat="44.22331" lon="6.69958">
        <ele>2382.2</ele>
        <time>2017-08-12T12:31:09Z</time>
      </trkpt>
      <trkpt lat="44.22322" lon="6.69959">
        <ele>2384.2</ele>
        <time>2017-08-12T12:31:20Z</time>
      </trkpt>
      <trkpt lat="44.22314" lon="6.69964">
        <ele>2389.1</ele>
        <time>2017-08-12T12:31:38Z</time>
      </trkpt>
      <trkpt lat="44.22304" lon="6.69963">
        <ele>2391.9</ele>
        <time>2017-08-12T12:31:49Z</time>
      </trkpt>
      <trkpt lat="44.22295" lon="6.69969">
        <ele>2394.1</ele>
        <time>2017-08-12T12:31:59Z</time>
      </trkpt>
      <trkpt lat="44.22288" lon="6.69977">
        <ele>2395.7</ele>
        <time>2017-08-12T12:32:09Z</time>
      </trkpt>
      <trkpt lat="44.22279" lon="6.69984">
        <ele>2397.8</ele>
        <time>2017-08-12T12:32:21Z</time>
      </trkpt>
      <trkpt lat="44.2227" lon="6.69984">
        <ele>2399.6</ele>
        <time>2017-08-12T12:32:33Z</time>
      </trkpt>
      <trkpt lat="44.2226" lon="6.69981">
        <ele>2402.3</ele>
        <time>2017-08-12T12:32:48Z</time>
      </trkpt>
      <trkpt lat="44.22251" lon="6.69976">
        <ele>2404.1</ele>
        <time>2017-08-12T12:32:58Z</time>
      </trkpt>
      <trkpt lat="44.22242" lon="6.69971">
        <ele>2406.5</ele>
        <time>2017-08-12T12:33:10Z</time>
      </trkpt>
      <trkpt lat="44.22232" lon="6.69969">
        <ele>2408.4</ele>
        <time>2017-08-12T12:33:20Z</time>
      </trkpt>
      <trkpt lat="44.22223" lon="6.69969">
        <ele>2409.8</ele>
        <time>2017-08-12T12:33:28Z</time>
      </trkpt>
      <trkpt lat="44.22214" lon="6.69967">
        <ele>2411.8</ele>
        <time>2017-08-12T12:33:39Z</time>
      </trkpt>
      <trkpt lat="44.22204" lon="6.6997">
        <ele>2412.8</ele>
        <time>2017-08-12T12:33:47Z</time>
      </trkpt>
      <trkpt lat="44.22195" lon="6.69967">
        <ele>2413.4</ele>
        <time>2017-08-12T12:33:55Z</time>
      </trkpt>
      <trkpt lat="44.22186" lon="6.69965">
        <ele>2414.6</ele>
        <time>2017-08-12T12:34:05Z</time>
      </trkpt>
      <trkpt lat="44.22195" lon="6.69968">
        <ele>2417.9</ele>
        <time>2017-08-12T12:34:33Z</time>
      </trkpt>
      <trkpt lat="44.22186" lon="6.69965">
        <ele>2418.4</ele>
        <time>2017-08-12T12:34:42Z</time>
      </trkpt>
      <trkpt lat="44.22193" lon="6.69957">
        <ele>2418.6</ele>
        <time>2017-08-12T12:35:05Z</time>
      </trkpt>
      <trkpt lat="44.22204" lon="6.69959">
        <ele>2418.6</ele>
        <time>2017-08-12T12:35:11Z</time>
      </trkpt>
      <trkpt lat="44.22194" lon="6.69956">
        <ele>2418.5</ele>
        <time>2017-08-12T12:35:23Z</time>
      </trkpt>
      <trkpt lat="44.22202" lon="6.69963">
        <ele>2418.5</ele>
        <time>2017-08-12T12:35:30Z</time>
      </trkpt>
      <trkpt lat="44.22213" lon="6.69973">
        <ele>2418.5</ele>
        <time>2017-08-12T12:35:33Z</time>
      </trkpt>
      <trkpt lat="44.22223" lon="6.69971">
        <ele>2418.5</ele>
        <time>2017-08-12T12:35:38Z</time>
      </trkpt>
      <trkpt lat="44.22234" lon="6.69972">
        <ele>2418.5</ele>
        <time>2017-08-12T12:35:42Z</time>
      </trkpt>
      <trkpt lat="44.22243" lon="6.69976">
        <ele>2418.5</ele>
        <time>2017-08-12T12:35:45Z</time>
      </trkpt>
      <trkpt lat="44.22248" lon="6.6999">
        <ele>2418.5</ele>
        <time>2017-08-12T12:35:49Z</time>
      </trkpt>
      <trkpt lat="44.22238" lon="6.69998">
        <ele>2418.5</ele>
        <time>2017-08-12T12:35:51Z</time>
      </trkpt>
      <trkpt lat="44.22231" lon="6.70006">
        <ele>2418.5</ele>
        <time>2017-08-12T12:35:54Z</time>
      </trkpt>
      <trkpt lat="44.22235" lon="6.69988">
        <ele>2418.5</ele>
        <time>2017-08-12T12:35:58Z</time>
      </trkpt>
      <trkpt lat="44.22242" lon="6.69978">
        <ele>2418.5</ele>
        <time>2017-08-12T12:36:01Z</time>
      </trkpt>
      <trkpt lat="44.22252" lon="6.69974">
        <ele>2418.5</ele>
        <time>2017-08-12T12:36:14Z</time>
      </trkpt>
      <trkpt lat="44.22262" lon="6.6997">
        <ele>2418.4</ele>
        <time>2017-08-12T12:36:27Z</time>
      </trkpt>
      <trkpt lat="44.22271" lon="6.69975">
        <ele>2418.4</ele>
        <time>2017-08-12T12:36:37Z</time>
      </trkpt>
      <trkpt lat="44.2226" lon="6.69974">
        <ele>2418.3</ele>
        <time>2017-08-12T12:36:48Z</time>
      </trkpt>
      <trkpt lat="44.22225" lon="6.69972">
        <ele>2418</ele>
        <time>2017-08-12T12:36:57Z</time>
      </trkpt>
      <trkpt lat="44.22239" lon="6.69971">
        <ele>2415.4</ele>
        <time>2017-08-12T12:39:56Z</time>
      </trkpt>
      <trkpt lat="44.22233" lon="6.69981">
        <ele>2414.4</ele>
        <time>2017-08-12T12:40:15Z</time>
      </trkpt>
      <trkpt lat="44.22246" lon="6.69984">
        <ele>2413.1</ele>
        <time>2017-08-12T12:43:26Z</time>
      </trkpt>
      <trkpt lat="44.22259" lon="6.69985">
        <ele>2413.1</ele>
        <time>2017-08-12T12:43:29Z</time>
      </trkpt>
      <trkpt lat="44.22232" lon="6.69978">
        <ele>2412</ele>
        <time>2017-08-12T12:43:37Z</time>
      </trkpt>
      <trkpt lat="44.22223" lon="6.69973">
        <ele>2412.5</ele>
        <time>2017-08-12T12:43:43Z</time>
      </trkpt>
      <trkpt lat="44.22215" lon="6.69967">
        <ele>2412.2</ele>
        <time>2017-08-12T12:43:52Z</time>
      </trkpt>
      <trkpt lat="44.22213" lon="6.69952">
        <ele>2412</ele>
        <time>2017-08-12T12:43:59Z</time>
      </trkpt>
      <trkpt lat="44.22214" lon="6.69937">
        <ele>2412</ele>
        <time>2017-08-12T12:44:05Z</time>
      </trkpt>
      <trkpt lat="44.22216" lon="6.69921">
        <ele>2412.1</ele>
        <time>2017-08-12T12:44:10Z</time>
      </trkpt>
      <trkpt lat="44.22216" lon="6.69906">
        <ele>2412.5</ele>
        <time>2017-08-12T12:44:16Z</time>
      </trkpt>
      <trkpt lat="44.22212" lon="6.69917">
        <ele>2413.3</ele>
        <time>2017-08-12T12:44:24Z</time>
      </trkpt>
      <trkpt lat="44.22204" lon="6.69909">
        <ele>2414.5</ele>
        <time>2017-08-12T12:44:34Z</time>
      </trkpt>
      <trkpt lat="44.22194" lon="6.69907">
        <ele>2415.8</ele>
        <time>2017-08-12T12:44:44Z</time>
      </trkpt>
      <trkpt lat="44.22185" lon="6.69914">
        <ele>2416.5</ele>
        <time>2017-08-12T12:44:50Z</time>
      </trkpt>
      <trkpt lat="44.22175" lon="6.6992">
        <ele>2417.1</ele>
        <time>2017-08-12T12:44:55Z</time>
      </trkpt>
      <trkpt lat="44.22167" lon="6.69925">
        <ele>2418.1</ele>
        <time>2017-08-12T12:45:01Z</time>
      </trkpt>
      <trkpt lat="44.22158" lon="6.69927">
        <ele>2420.6</ele>
        <time>2017-08-12T12:45:20Z</time>
      </trkpt>
      <trkpt lat="44.22139" lon="6.69913">
        <ele>2424</ele>
        <time>2017-08-12T12:45:45Z</time>
      </trkpt>
      <trkpt lat="44.22131" lon="6.6992">
        <ele>2424.7</ele>
        <time>2017-08-12T12:45:50Z</time>
      </trkpt>
      <trkpt lat="44.2214" lon="6.69918">
        <ele>2427.8</ele>
        <time>2017-08-12T12:46:09Z</time>
      </trkpt>
      <trkpt lat="44.22147" lon="6.69909">
        <ele>2429.3</ele>
        <time>2017-08-12T12:46:20Z</time>
      </trkpt>
      <trkpt lat="44.22154" lon="6.69901">
        <ele>2430.6</ele>
        <time>2017-08-12T12:46:30Z</time>
      </trkpt>
      <trkpt lat="44.22162" lon="6.69893">
        <ele>2432.2</ele>
        <time>2017-08-12T12:46:42Z</time>
      </trkpt>
      <trkpt lat="44.22157" lon="6.69881">
        <ele>2432.8</ele>
        <time>2017-08-12T12:46:48Z</time>
      </trkpt>
      <trkpt lat="44.22148" lon="6.69876">
        <ele>2434.5</ele>
        <time>2017-08-12T12:46:59Z</time>
      </trkpt>
      <trkpt lat="44.2214" lon="6.6987">
        <ele>2436</ele>
        <time>2017-08-12T12:47:11Z</time>
      </trkpt>
      <trkpt lat="44.22131" lon="6.69864">
        <ele>2437.4</ele>
        <time>2017-08-12T12:47:25Z</time>
      </trkpt>
      <trkpt lat="44.22121" lon="6.6986">
        <ele>2438.9</ele>
        <time>2017-08-12T12:47:37Z</time>
      </trkpt>
      <trkpt lat="44.22112" lon="6.6986">
        <ele>2440.7</ele>
        <time>2017-08-12T12:47:49Z</time>
      </trkpt>
      <trkpt lat="44.22103" lon="6.69865">
        <ele>2441.8</ele>
        <time>2017-08-12T12:47:56Z</time>
      </trkpt>
      <trkpt lat="44.22094" lon="6.69865">
        <ele>2443.7</ele>
        <time>2017-08-12T12:48:07Z</time>
      </trkpt>
      <trkpt lat="44.22085" lon="6.69867">
        <ele>2445.1</ele>
        <time>2017-08-12T12:48:17Z</time>
      </trkpt>
      <trkpt lat="44.22075" lon="6.6987">
        <ele>2446.8</ele>
        <time>2017-08-12T12:48:28Z</time>
      </trkpt>
      <trkpt lat="44.22065" lon="6.69873">
        <ele>2448.2</ele>
        <time>2017-08-12T12:48:39Z</time>
      </trkpt>
      <trkpt lat="44.22058" lon="6.6988">
        <ele>2449.2</ele>
        <time>2017-08-12T12:48:48Z</time>
      </trkpt>
      <trkpt lat="44.22049" lon="6.69885">
        <ele>2450.5</ele>
        <time>2017-08-12T12:48:57Z</time>
      </trkpt>
      <trkpt lat="44.2204" lon="6.69886">
        <ele>2451.5</ele>
        <time>2017-08-12T12:49:07Z</time>
      </trkpt>
      <trkpt lat="44.22031" lon="6.69893">
        <ele>2452.6</ele>
        <time>2017-08-12T12:49:16Z</time>
      </trkpt>
      <trkpt lat="44.22023" lon="6.69898">
        <ele>2453.2</ele>
        <time>2017-08-12T12:49:21Z</time>
      </trkpt>
      <trkpt lat="44.22014" lon="6.69903">
        <ele>2453.7</ele>
        <time>2017-08-12T12:49:25Z</time>
      </trkpt>
      <trkpt lat="44.22007" lon="6.69911">
        <ele>2455</ele>
        <time>2017-08-12T12:49:34Z</time>
      </trkpt>
      <trkpt lat="44.22001" lon="6.69922">
        <ele>2456</ele>
        <time>2017-08-12T12:49:43Z</time>
      </trkpt>
      <trkpt lat="44.21996" lon="6.69932">
        <ele>2457.7</ele>
        <time>2017-08-12T12:49:55Z</time>
      </trkpt>
      <trkpt lat="44.2199" lon="6.69942">
        <ele>2458.6</ele>
        <time>2017-08-12T12:50:03Z</time>
      </trkpt>
      <trkpt lat="44.21986" lon="6.69954">
        <ele>2459.4</ele>
        <time>2017-08-12T12:50:12Z</time>
      </trkpt>
      <trkpt lat="44.21981" lon="6.69966">
        <ele>2460</ele>
        <time>2017-08-12T12:50:18Z</time>
      </trkpt>
      <trkpt lat="44.21976" lon="6.69979">
        <ele>2460.8</ele>
        <time>2017-08-12T12:50:26Z</time>
      </trkpt>
      <trkpt lat="44.21976" lon="6.69993">
        <ele>2461.8</ele>
        <time>2017-08-12T12:50:36Z</time>
      </trkpt>
      <trkpt lat="44.21975" lon="6.70006">
        <ele>2462.7</ele>
        <time>2017-08-12T12:50:44Z</time>
      </trkpt>
      <trkpt lat="44.21976" lon="6.7002">
        <ele>2463.7</ele>
        <time>2017-08-12T12:50:52Z</time>
      </trkpt>
      <trkpt lat="44.21975" lon="6.70033">
        <ele>2464.9</ele>
        <time>2017-08-12T12:51:02Z</time>
      </trkpt>
      <trkpt lat="44.21971" lon="6.70044">
        <ele>2466.2</ele>
        <time>2017-08-12T12:51:12Z</time>
      </trkpt>
      <trkpt lat="44.21965" lon="6.70054">
        <ele>2467.6</ele>
        <time>2017-08-12T12:51:23Z</time>
      </trkpt>
      <trkpt lat="44.21972" lon="6.70062">
        <ele>2468.2</ele>
        <time>2017-08-12T12:51:28Z</time>
      </trkpt>
      <trkpt lat="44.21977" lon="6.70073">
        <ele>2469.1</ele>
        <time>2017-08-12T12:51:35Z</time>
      </trkpt>
      <trkpt lat="44.21981" lon="6.70084">
        <ele>2470.2</ele>
        <time>2017-08-12T12:51:44Z</time>
      </trkpt>
      <trkpt lat="44.21984" lon="6.70096">
        <ele>2471.9</ele>
        <time>2017-08-12T12:51:57Z</time>
      </trkpt>
      <trkpt lat="44.21983" lon="6.70109">
        <ele>2473.1</ele>
        <time>2017-08-12T12:52:07Z</time>
      </trkpt>
      <trkpt lat="44.21987" lon="6.70122">
        <ele>2474.7</ele>
        <time>2017-08-12T12:52:17Z</time>
      </trkpt>
      <trkpt lat="44.21978" lon="6.70116">
        <ele>2477.3</ele>
        <time>2017-08-12T12:52:36Z</time>
      </trkpt>
      <trkpt lat="44.21971" lon="6.70107">
        <ele>2478.2</ele>
        <time>2017-08-12T12:52:44Z</time>
      </trkpt>
      <trkpt lat="44.21964" lon="6.70098">
        <ele>2479.6</ele>
        <time>2017-08-12T12:52:54Z</time>
      </trkpt>
      <trkpt lat="44.2196" lon="6.70086">
        <ele>2480.9</ele>
        <time>2017-08-12T12:53:06Z</time>
      </trkpt>
      <trkpt lat="44.21956" lon="6.70098">
        <ele>2484</ele>
        <time>2017-08-12T12:53:25Z</time>
      </trkpt>
      <trkpt lat="44.21956" lon="6.70084">
        <ele>2487.9</ele>
        <time>2017-08-12T12:54:14Z</time>
      </trkpt>
      <trkpt lat="44.21962" lon="6.70071">
        <ele>2487.9</ele>
        <time>2017-08-12T12:54:18Z</time>
      </trkpt>
      <trkpt lat="44.21968" lon="6.70059">
        <ele>2488</ele>
        <time>2017-08-12T12:54:22Z</time>
      </trkpt>
      <trkpt lat="44.21974" lon="6.70047">
        <ele>2488</ele>
        <time>2017-08-12T12:54:26Z</time>
      </trkpt>
      <trkpt lat="44.21979" lon="6.70035">
        <ele>2488.1</ele>
        <time>2017-08-12T12:54:32Z</time>
      </trkpt>
      <trkpt lat="44.21985" lon="6.70046">
        <ele>2490</ele>
        <time>2017-08-12T12:57:27Z</time>
      </trkpt>
      <trkpt lat="44.21979" lon="6.70067">
        <ele>2490</ele>
        <time>2017-08-12T12:57:33Z</time>
      </trkpt>
      <trkpt lat="44.21976" lon="6.70084">
        <ele>2491.4</ele>
        <time>2017-08-12T12:57:39Z</time>
      </trkpt>
      <trkpt lat="44.21973" lon="6.70099">
        <ele>2491.9</ele>
        <time>2017-08-12T12:57:44Z</time>
      </trkpt>
      <trkpt lat="44.2197" lon="6.70111">
        <ele>2492.4</ele>
        <time>2017-08-12T12:57:48Z</time>
      </trkpt>
      <trkpt lat="44.21966" lon="6.70123">
        <ele>2492.8</ele>
        <time>2017-08-12T12:57:52Z</time>
      </trkpt>
      <trkpt lat="44.21946" lon="6.7015">
        <ele>2496</ele>
        <time>2017-08-12T12:58:54Z</time>
      </trkpt>
      <trkpt lat="44.2194" lon="6.70159">
        <ele>2496.6</ele>
        <time>2017-08-12T13:00:11Z</time>
      </trkpt>
      <trkpt lat="44.21949" lon="6.70158">
        <ele>2494.8</ele>
        <time>2017-08-12T13:03:25Z</time>
      </trkpt>
      <trkpt lat="44.21949" lon="6.70171">
        <ele>2495.8</ele>
        <time>2017-08-12T13:04:43Z</time>
      </trkpt>
      <trkpt lat="44.2195" lon="6.70184">
        <ele>2496.1</ele>
        <time>2017-08-12T13:04:57Z</time>
      </trkpt>
      <trkpt lat="44.21946" lon="6.70196">
        <ele>2498.6</ele>
        <time>2017-08-12T13:05:21Z</time>
      </trkpt>
      <trkpt lat="44.21947" lon="6.70209">
        <ele>2501.2</ele>
        <time>2017-08-12T13:05:37Z</time>
      </trkpt>
      <trkpt lat="44.21952" lon="6.70219">
        <ele>2503.8</ele>
        <time>2017-08-12T13:05:52Z</time>
      </trkpt>
      <trkpt lat="44.21954" lon="6.70232">
        <ele>2506.8</ele>
        <time>2017-08-12T13:06:07Z</time>
      </trkpt>
      <trkpt lat="44.21949" lon="6.70243">
        <ele>2511.4</ele>
        <time>2017-08-12T13:06:29Z</time>
      </trkpt>
      <trkpt lat="44.21948" lon="6.70255">
        <ele>2514.7</ele>
        <time>2017-08-12T13:06:46Z</time>
      </trkpt>
      <trkpt lat="44.21951" lon="6.70268">
        <ele>2518.9</ele>
        <time>2017-08-12T13:07:05Z</time>
      </trkpt>
      <trkpt lat="44.21956" lon="6.70278">
        <ele>2522.3</ele>
        <time>2017-08-12T13:07:21Z</time>
      </trkpt>
      <trkpt lat="44.21959" lon="6.7029">
        <ele>2525.6</ele>
        <time>2017-08-12T13:07:36Z</time>
      </trkpt>
      <trkpt lat="44.21955" lon="6.70301">
        <ele>2526.9</ele>
        <time>2017-08-12T13:07:42Z</time>
      </trkpt>
      <trkpt lat="44.21951" lon="6.70313">
        <ele>2529.4</ele>
        <time>2017-08-12T13:07:52Z</time>
      </trkpt>
      <trkpt lat="44.21948" lon="6.70325">
        <ele>2531.8</ele>
        <time>2017-08-12T13:08:03Z</time>
      </trkpt>
      <trkpt lat="44.21943" lon="6.70337">
        <ele>2534.1</ele>
        <time>2017-08-12T13:08:13Z</time>
      </trkpt>
      <trkpt lat="44.21937" lon="6.70348">
        <ele>2538.6</ele>
        <time>2017-08-12T13:08:32Z</time>
      </trkpt>
      <trkpt lat="44.21934" lon="6.70362">
        <ele>2541.2</ele>
        <time>2017-08-12T13:08:43Z</time>
      </trkpt>
      <trkpt lat="44.21934" lon="6.70376">
        <ele>2542.7</ele>
        <time>2017-08-12T13:08:51Z</time>
      </trkpt>
      <trkpt lat="44.2193" lon="6.70388">
        <ele>2543.5</ele>
        <time>2017-08-12T13:08:58Z</time>
      </trkpt>
      <trkpt lat="44.21926" lon="6.70399">
        <ele>2544.3</ele>
        <time>2017-08-12T13:09:08Z</time>
      </trkpt>
      <trkpt lat="44.21919" lon="6.70409">
        <ele>2545.1</ele>
        <time>2017-08-12T13:09:17Z</time>
      </trkpt>
      <trkpt lat="44.21916" lon="6.70421">
        <ele>2546.4</ele>
        <time>2017-08-12T13:09:27Z</time>
      </trkpt>
      <trkpt lat="44.21916" lon="6.70434">
        <ele>2548.9</ele>
        <time>2017-08-12T13:09:40Z</time>
      </trkpt>
      <trkpt lat="44.21915" lon="6.70447">
        <ele>2557</ele>
        <time>2017-08-12T13:10:16Z</time>
      </trkpt>
      <trkpt lat="44.21914" lon="6.7046">
        <ele>2559.9</ele>
        <time>2017-08-12T13:10:28Z</time>
      </trkpt>
      <trkpt lat="44.21913" lon="6.70473">
        <ele>2563.7</ele>
        <time>2017-08-12T13:10:44Z</time>
      </trkpt>
      <trkpt lat="44.21907" lon="6.70483">
        <ele>2565.5</ele>
        <time>2017-08-12T13:10:56Z</time>
      </trkpt>
      <trkpt lat="44.21905" lon="6.70495">
        <ele>2568.4</ele>
        <time>2017-08-12T13:11:14Z</time>
      </trkpt>
      <trkpt lat="44.21902" lon="6.70508">
        <ele>2570.8</ele>
        <time>2017-08-12T13:11:27Z</time>
      </trkpt>
      <trkpt lat="44.21905" lon="6.7052">
        <ele>2572.1</ele>
        <time>2017-08-12T13:11:38Z</time>
      </trkpt>
      <trkpt lat="44.21903" lon="6.70533">
        <ele>2574.6</ele>
        <time>2017-08-12T13:11:53Z</time>
      </trkpt>
      <trkpt lat="44.21909" lon="6.70543">
        <ele>2577.8</ele>
        <time>2017-08-12T13:12:08Z</time>
      </trkpt>
      <trkpt lat="44.21909" lon="6.70556">
        <ele>2580.2</ele>
        <time>2017-08-12T13:12:21Z</time>
      </trkpt>
      <trkpt lat="44.21912" lon="6.70569">
        <ele>2582.8</ele>
        <time>2017-08-12T13:12:37Z</time>
      </trkpt>
      <trkpt lat="44.21908" lon="6.70581">
        <ele>2588.3</ele>
        <time>2017-08-12T13:13:03Z</time>
      </trkpt>
      <trkpt lat="44.21907" lon="6.70594">
        <ele>2592</ele>
        <time>2017-08-12T13:13:23Z</time>
      </trkpt>
      <trkpt lat="44.21905" lon="6.70607">
        <ele>2596.9</ele>
        <time>2017-08-12T13:13:43Z</time>
      </trkpt>
      <trkpt lat="44.21903" lon="6.7062">
        <ele>2600.4</ele>
        <time>2017-08-12T13:13:57Z</time>
      </trkpt>
      <trkpt lat="44.21904" lon="6.70632">
        <ele>2604.3</ele>
        <time>2017-08-12T13:14:13Z</time>
      </trkpt>
      <trkpt lat="44.21911" lon="6.70644">
        <ele>2614.5</ele>
        <time>2017-08-12T13:14:53Z</time>
      </trkpt>
      <trkpt lat="44.21914" lon="6.70657">
        <ele>2619.1</ele>
        <time>2017-08-12T13:15:16Z</time>
      </trkpt>
      <trkpt lat="44.21921" lon="6.70666">
        <ele>2621.4</ele>
        <time>2017-08-12T13:15:31Z</time>
      </trkpt>
      <trkpt lat="44.2193" lon="6.70662">
        <ele>2625.9</ele>
        <time>2017-08-12T13:16:30Z</time>
      </trkpt>
      <trkpt lat="44.21921" lon="6.70657">
        <ele>2626.5</ele>
        <time>2017-08-12T13:16:47Z</time>
      </trkpt>
      <trkpt lat="44.21913" lon="6.70652">
        <ele>2626.6</ele>
        <time>2017-08-12T13:16:58Z</time>
      </trkpt>
      <trkpt lat="44.21909" lon="6.70665">
        <ele>2632.6</ele>
        <time>2017-08-12T13:17:49Z</time>
      </trkpt>
      <trkpt lat="44.21904" lon="6.70676">
        <ele>2634.2</ele>
        <time>2017-08-12T13:18:09Z</time>
      </trkpt>
      <trkpt lat="44.21895" lon="6.70681">
        <ele>2636.1</ele>
        <time>2017-08-12T13:18:22Z</time>
      </trkpt>
      <trkpt lat="44.2189" lon="6.70692">
        <ele>2637.8</ele>
        <time>2017-08-12T13:18:33Z</time>
      </trkpt>
      <trkpt lat="44.21896" lon="6.70701">
        <ele>2641.8</ele>
        <time>2017-08-12T13:18:54Z</time>
      </trkpt>
      <trkpt lat="44.21907" lon="6.70697">
        <ele>2645.7</ele>
        <time>2017-08-12T13:19:17Z</time>
      </trkpt>
      <trkpt lat="44.21902" lon="6.70709">
        <ele>2656.6</ele>
        <time>2017-08-12T13:24:46Z</time>
      </trkpt>
      <trkpt lat="44.21894" lon="6.70702">
        <ele>2656</ele>
        <time>2017-08-12T13:24:55Z</time>
      </trkpt>
      <trkpt lat="44.21896" lon="6.70689">
        <ele>2654.8</ele>
        <time>2017-08-12T13:25:34Z</time>
      </trkpt>
      <trkpt lat="44.21904" lon="6.70681">
        <ele>2654.5</ele>
        <time>2017-08-12T13:25:52Z</time>
      </trkpt>
      <trkpt lat="44.21907" lon="6.70666">
        <ele>2651.7</ele>
        <time>2017-08-12T13:26:39Z</time>
      </trkpt>
      <trkpt lat="44.21914" lon="6.70655">
        <ele>2645.3</ele>
        <time>2017-08-12T13:28:13Z</time>
      </trkpt>
      <trkpt lat="44.21913" lon="6.70642">
        <ele>2644.9</ele>
        <time>2017-08-12T13:28:22Z</time>
      </trkpt>
      <trkpt lat="44.21904" lon="6.70638">
        <ele>2642.6</ele>
        <time>2017-08-12T13:28:51Z</time>
      </trkpt>
      <trkpt lat="44.21898" lon="6.70627">
        <ele>2640.2</ele>
        <time>2017-08-12T13:29:05Z</time>
      </trkpt>
      <trkpt lat="44.21901" lon="6.70614">
        <ele>2637.5</ele>
        <time>2017-08-12T13:29:16Z</time>
      </trkpt>
      <trkpt lat="44.21901" lon="6.70601">
        <ele>2631.2</ele>
        <time>2017-08-12T13:29:43Z</time>
      </trkpt>
      <trkpt lat="44.21904" lon="6.70588">
        <ele>2627.4</ele>
        <time>2017-08-12T13:30:02Z</time>
      </trkpt>
      <trkpt lat="44.21901" lon="6.70575">
        <ele>2624.6</ele>
        <time>2017-08-12T13:30:13Z</time>
      </trkpt>
      <trkpt lat="44.21905" lon="6.70563">
        <ele>2620</ele>
        <time>2017-08-12T13:30:28Z</time>
      </trkpt>
      <trkpt lat="44.21909" lon="6.70551">
        <ele>2613.8</ele>
        <time>2017-08-12T13:30:57Z</time>
      </trkpt>
      <trkpt lat="44.21909" lon="6.70537">
        <ele>2612.6</ele>
        <time>2017-08-12T13:31:06Z</time>
      </trkpt>
      <trkpt lat="44.21902" lon="6.7053">
        <ele>2611.5</ele>
        <time>2017-08-12T13:31:21Z</time>
      </trkpt>
      <trkpt lat="44.21904" lon="6.70518">
        <ele>2609.5</ele>
        <time>2017-08-12T13:31:35Z</time>
      </trkpt>
      <trkpt lat="44.21902" lon="6.70506">
        <ele>2607.6</ele>
        <time>2017-08-12T13:31:45Z</time>
      </trkpt>
      <trkpt lat="44.21904" lon="6.70494">
        <ele>2605</ele>
        <time>2017-08-12T13:31:59Z</time>
      </trkpt>
      <trkpt lat="44.21906" lon="6.70481">
        <ele>2602.8</ele>
        <time>2017-08-12T13:32:20Z</time>
      </trkpt>
      <trkpt lat="44.21906" lon="6.70468">
        <ele>2601.4</ele>
        <time>2017-08-12T13:32:44Z</time>
      </trkpt>
      <trkpt lat="44.21906" lon="6.70455">
        <ele>2599.4</ele>
        <time>2017-08-12T13:32:57Z</time>
      </trkpt>
      <trkpt lat="44.2191" lon="6.70443">
        <ele>2595.9</ele>
        <time>2017-08-12T13:33:15Z</time>
      </trkpt>
      <trkpt lat="44.21911" lon="6.7043">
        <ele>2592.3</ele>
        <time>2017-08-12T13:34:52Z</time>
      </trkpt>
      <trkpt lat="44.21919" lon="6.70424">
        <ele>2591.8</ele>
        <time>2017-08-12T13:35:17Z</time>
      </trkpt>
      <trkpt lat="44.2192" lon="6.7041">
        <ele>2590.2</ele>
        <time>2017-08-12T13:35:27Z</time>
      </trkpt>
      <trkpt lat="44.21926" lon="6.70399">
        <ele>2588.2</ele>
        <time>2017-08-12T13:35:41Z</time>
      </trkpt>
      <trkpt lat="44.2193" lon="6.70387">
        <ele>2587.4</ele>
        <time>2017-08-12T13:35:49Z</time>
      </trkpt>
      <trkpt lat="44.21935" lon="6.70375">
        <ele>2586.4</ele>
        <time>2017-08-12T13:36:00Z</time>
      </trkpt>
      <trkpt lat="44.21936" lon="6.70361">
        <ele>2585.6</ele>
        <time>2017-08-12T13:36:10Z</time>
      </trkpt>
      <trkpt lat="44.21939" lon="6.70348">
        <ele>2585.3</ele>
        <time>2017-08-12T13:36:22Z</time>
      </trkpt>
      <trkpt lat="44.21945" lon="6.70338">
        <ele>2584.4</ele>
        <time>2017-08-12T13:36:35Z</time>
      </trkpt>
      <trkpt lat="44.21948" lon="6.70327">
        <ele>2582.1</ele>
        <time>2017-08-12T13:36:50Z</time>
      </trkpt>
      <trkpt lat="44.2195" lon="6.70314">
        <ele>2580</ele>
        <time>2017-08-12T13:36:59Z</time>
      </trkpt>
      <trkpt lat="44.21953" lon="6.70301">
        <ele>2577.8</ele>
        <time>2017-08-12T13:37:08Z</time>
      </trkpt>
      <trkpt lat="44.2196" lon="6.70292">
        <ele>2575.9</ele>
        <time>2017-08-12T13:37:16Z</time>
      </trkpt>
      <trkpt lat="44.21961" lon="6.7028">
        <ele>2573.6</ele>
        <time>2017-08-12T13:37:25Z</time>
      </trkpt>
      <trkpt lat="44.21956" lon="6.70269">
        <ele>2571.5</ele>
        <time>2017-08-12T13:37:33Z</time>
      </trkpt>
      <trkpt lat="44.2195" lon="6.70259">
        <ele>2568.5</ele>
        <time>2017-08-12T13:37:43Z</time>
      </trkpt>
      <trkpt lat="44.2195" lon="6.70246">
        <ele>2564.3</ele>
        <time>2017-08-12T13:37:57Z</time>
      </trkpt>
      <trkpt lat="44.21949" lon="6.70234">
        <ele>2560.2</ele>
        <time>2017-08-12T13:38:12Z</time>
      </trkpt>
      <trkpt lat="44.21948" lon="6.70221">
        <ele>2556.3</ele>
        <time>2017-08-12T13:38:29Z</time>
      </trkpt>
      <trkpt lat="44.21949" lon="6.70208">
        <ele>2553.6</ele>
        <time>2017-08-12T13:38:39Z</time>
      </trkpt>
      <trkpt lat="44.21947" lon="6.70195">
        <ele>2551</ele>
        <time>2017-08-12T13:38:49Z</time>
      </trkpt>
      <trkpt lat="44.21952" lon="6.70183">
        <ele>2548.1</ele>
        <time>2017-08-12T13:38:58Z</time>
      </trkpt>
      <trkpt lat="44.21953" lon="6.7017">
        <ele>2546.5</ele>
        <time>2017-08-12T13:39:03Z</time>
      </trkpt>
      <trkpt lat="44.21947" lon="6.70159">
        <ele>2542</ele>
        <time>2017-08-12T13:39:22Z</time>
      </trkpt>
      <trkpt lat="44.21945" lon="6.70147">
        <ele>2542.6</ele>
        <time>2017-08-12T13:52:29Z</time>
      </trkpt>
      <trkpt lat="44.21948" lon="6.70134">
        <ele>2540.7</ele>
        <time>2017-08-12T13:52:46Z</time>
      </trkpt>
      <trkpt lat="44.2195" lon="6.70122">
        <ele>2538.6</ele>
        <time>2017-08-12T13:53:01Z</time>
      </trkpt>
      <trkpt lat="44.21951" lon="6.70109">
        <ele>2537.4</ele>
        <time>2017-08-12T13:53:11Z</time>
      </trkpt>
      <trkpt lat="44.21952" lon="6.70096">
        <ele>2535.8</ele>
        <time>2017-08-12T13:53:25Z</time>
      </trkpt>
      <trkpt lat="44.21958" lon="6.70086">
        <ele>2533.4</ele>
        <time>2017-08-12T13:54:22Z</time>
      </trkpt>
      <trkpt lat="44.2196" lon="6.70073">
        <ele>2531.9</ele>
        <time>2017-08-12T13:54:48Z</time>
      </trkpt>
      <trkpt lat="44.21965" lon="6.70063">
        <ele>2529.8</ele>
        <time>2017-08-12T13:55:05Z</time>
      </trkpt>
      <trkpt lat="44.21972" lon="6.70054">
        <ele>2526.4</ele>
        <time>2017-08-12T13:55:23Z</time>
      </trkpt>
      <trkpt lat="44.21977" lon="6.70041">
        <ele>2520.3</ele>
        <time>2017-08-12T13:55:49Z</time>
      </trkpt>
      <trkpt lat="44.21984" lon="6.70029">
        <ele>2519</ele>
        <time>2017-08-12T13:55:54Z</time>
      </trkpt>
      <trkpt lat="44.21985" lon="6.70016">
        <ele>2517.7</ele>
        <time>2017-08-12T13:55:59Z</time>
      </trkpt>
      <trkpt lat="44.21988" lon="6.70004">
        <ele>2511.9</ele>
        <time>2017-08-12T13:57:33Z</time>
      </trkpt>
      <trkpt lat="44.2199" lon="6.6999">
        <ele>2511.1</ele>
        <time>2017-08-12T13:57:41Z</time>
      </trkpt>
      <trkpt lat="44.21995" lon="6.69978">
        <ele>2510.3</ele>
        <time>2017-08-12T13:57:54Z</time>
      </trkpt>
      <trkpt lat="44.21996" lon="6.69965">
        <ele>2509.9</ele>
        <time>2017-08-12T13:58:01Z</time>
      </trkpt>
      <trkpt lat="44.21998" lon="6.69951">
        <ele>2509.1</ele>
        <time>2017-08-12T13:58:09Z</time>
      </trkpt>
      <trkpt lat="44.22002" lon="6.69939">
        <ele>2508.3</ele>
        <time>2017-08-12T13:58:19Z</time>
      </trkpt>
      <trkpt lat="44.22009" lon="6.6993">
        <ele>2507.6</ele>
        <time>2017-08-12T13:58:27Z</time>
      </trkpt>
      <trkpt lat="44.22015" lon="6.6992">
        <ele>2506.7</ele>
        <time>2017-08-12T13:58:37Z</time>
      </trkpt>
      <trkpt lat="44.22022" lon="6.69912">
        <ele>2505.1</ele>
        <time>2017-08-12T13:58:51Z</time>
      </trkpt>
      <trkpt lat="44.22031" lon="6.69908">
        <ele>2504.1</ele>
        <time>2017-08-12T13:58:57Z</time>
      </trkpt>
      <trkpt lat="44.2204" lon="6.69904">
        <ele>2503</ele>
        <time>2017-08-12T13:59:04Z</time>
      </trkpt>
      <trkpt lat="44.22048" lon="6.69901">
        <ele>2502.1</ele>
        <time>2017-08-12T13:59:10Z</time>
      </trkpt>
      <trkpt lat="44.22057" lon="6.69893">
        <ele>2500.8</ele>
        <time>2017-08-12T13:59:18Z</time>
      </trkpt>
      <trkpt lat="44.22067" lon="6.69891">
        <ele>2499.4</ele>
        <time>2017-08-12T13:59:26Z</time>
      </trkpt>
      <trkpt lat="44.22076" lon="6.69892">
        <ele>2498.1</ele>
        <time>2017-08-12T13:59:34Z</time>
      </trkpt>
      <trkpt lat="44.22086" lon="6.69888">
        <ele>2496.2</ele>
        <time>2017-08-12T13:59:46Z</time>
      </trkpt>
      <trkpt lat="44.22095" lon="6.69886">
        <ele>2494.1</ele>
        <time>2017-08-12T13:59:56Z</time>
      </trkpt>
      <trkpt lat="44.22105" lon="6.69885">
        <ele>2492.9</ele>
        <time>2017-08-12T14:00:03Z</time>
      </trkpt>
      <trkpt lat="44.22114" lon="6.69882">
        <ele>2490.7</ele>
        <time>2017-08-12T14:00:17Z</time>
      </trkpt>
      <trkpt lat="44.22123" lon="6.69886">
        <ele>2489.3</ele>
        <time>2017-08-12T14:00:25Z</time>
      </trkpt>
      <trkpt lat="44.22132" lon="6.69884">
        <ele>2488.1</ele>
        <time>2017-08-12T14:00:33Z</time>
      </trkpt>
      <trkpt lat="44.22142" lon="6.69881">
        <ele>2486.8</ele>
        <time>2017-08-12T14:00:40Z</time>
      </trkpt>
      <trkpt lat="44.22151" lon="6.69879">
        <ele>2484.9</ele>
        <time>2017-08-12T14:00:50Z</time>
      </trkpt>
      <trkpt lat="44.22159" lon="6.69873">
        <ele>2483</ele>
        <time>2017-08-12T14:01:03Z</time>
      </trkpt>
      <trkpt lat="44.22168" lon="6.69878">
        <ele>2480.5</ele>
        <time>2017-08-12T14:01:17Z</time>
      </trkpt>
      <trkpt lat="44.22177" lon="6.69885">
        <ele>2478.1</ele>
        <time>2017-08-12T14:01:28Z</time>
      </trkpt>
      <trkpt lat="44.22185" lon="6.69892">
        <ele>2474.9</ele>
        <time>2017-08-12T14:01:39Z</time>
      </trkpt>
      <trkpt lat="44.22194" lon="6.69897">
        <ele>2471.9</ele>
        <time>2017-08-12T14:01:49Z</time>
      </trkpt>
      <trkpt lat="44.22204" lon="6.69897">
        <ele>2469.2</ele>
        <time>2017-08-12T14:01:58Z</time>
      </trkpt>
      <trkpt lat="44.22213" lon="6.699">
        <ele>2466</ele>
        <time>2017-08-12T14:02:09Z</time>
      </trkpt>
      <trkpt lat="44.22222" lon="6.69901">
        <ele>2463.4</ele>
        <time>2017-08-12T14:02:17Z</time>
      </trkpt>
      <trkpt lat="44.2223" lon="6.69907">
        <ele>2459.2</ele>
        <time>2017-08-12T14:02:31Z</time>
      </trkpt>
      <trkpt lat="44.22239" lon="6.69903">
        <ele>2457.3</ele>
        <time>2017-08-12T14:02:41Z</time>
      </trkpt>
      <trkpt lat="44.22248" lon="6.69903">
        <ele>2454.4</ele>
        <time>2017-08-12T14:02:59Z</time>
      </trkpt>
      <trkpt lat="44.22249" lon="6.69916">
        <ele>2450.8</ele>
        <time>2017-08-12T14:03:21Z</time>
      </trkpt>
      <trkpt lat="44.22258" lon="6.69921">
        <ele>2448.9</ele>
        <time>2017-08-12T14:03:31Z</time>
      </trkpt>
      <trkpt lat="44.22267" lon="6.6992">
        <ele>2447.1</ele>
        <time>2017-08-12T14:03:40Z</time>
      </trkpt>
      <trkpt lat="44.22276" lon="6.69918">
        <ele>2445.1</ele>
        <time>2017-08-12T14:03:49Z</time>
      </trkpt>
      <trkpt lat="44.22285" lon="6.69919">
        <ele>2443.3</ele>
        <time>2017-08-12T14:03:58Z</time>
      </trkpt>
      <trkpt lat="44.22294" lon="6.69917">
        <ele>2441.1</ele>
        <time>2017-08-12T14:04:11Z</time>
      </trkpt>
      <trkpt lat="44.22288" lon="6.69907">
        <ele>2438.5</ele>
        <time>2017-08-12T14:04:37Z</time>
      </trkpt>
      <trkpt lat="44.2228" lon="6.69901">
        <ele>2438</ele>
        <time>2017-08-12T14:04:42Z</time>
      </trkpt>
      <trkpt lat="44.22284" lon="6.69889">
        <ele>2437.7</ele>
        <time>2017-08-12T14:04:53Z</time>
      </trkpt>
      <trkpt lat="44.22293" lon="6.69882">
        <ele>2437.4</ele>
        <time>2017-08-12T14:05:27Z</time>
      </trkpt>
      <trkpt lat="44.22302" lon="6.69881">
        <ele>2437.4</ele>
        <time>2017-08-12T14:05:39Z</time>
      </trkpt>
      <trkpt lat="44.22311" lon="6.69883">
        <ele>2436.6</ele>
        <time>2017-08-12T14:05:50Z</time>
      </trkpt>
      <trkpt lat="44.22319" lon="6.6989">
        <ele>2434.1</ele>
        <time>2017-08-12T14:06:14Z</time>
      </trkpt>
      <trkpt lat="44.22328" lon="6.69896">
        <ele>2431.5</ele>
        <time>2017-08-12T14:06:30Z</time>
      </trkpt>
      <trkpt lat="44.22332" lon="6.69909">
        <ele>2429.8</ele>
        <time>2017-08-12T14:06:42Z</time>
      </trkpt>
      <trkpt lat="44.2234" lon="6.69916">
        <ele>2428.1</ele>
        <time>2017-08-12T14:06:54Z</time>
      </trkpt>
      <trkpt lat="44.22349" lon="6.69921">
        <ele>2426.5</ele>
        <time>2017-08-12T14:07:03Z</time>
      </trkpt>
      <trkpt lat="44.22357" lon="6.69926">
        <ele>2423.7</ele>
        <time>2017-08-12T14:07:16Z</time>
      </trkpt>
      <trkpt lat="44.22366" lon="6.69931">
        <ele>2420</ele>
        <time>2017-08-12T14:07:32Z</time>
      </trkpt>
      <trkpt lat="44.22375" lon="6.6993">
        <ele>2418</ele>
        <time>2017-08-12T14:07:42Z</time>
      </trkpt>
      <trkpt lat="44.22384" lon="6.69934">
        <ele>2416.2</ele>
        <time>2017-08-12T14:07:51Z</time>
      </trkpt>
      <trkpt lat="44.22393" lon="6.69936">
        <ele>2414.3</ele>
        <time>2017-08-12T14:07:59Z</time>
      </trkpt>
      <trkpt lat="44.22398" lon="6.69947">
        <ele>2411.2</ele>
        <time>2017-08-12T14:08:11Z</time>
      </trkpt>
      <trkpt lat="44.22407" lon="6.69952">
        <ele>2408.8</ele>
        <time>2017-08-12T14:08:21Z</time>
      </trkpt>
      <trkpt lat="44.22415" lon="6.69958">
        <ele>2406.1</ele>
        <time>2017-08-12T14:08:35Z</time>
      </trkpt>
      <trkpt lat="44.22424" lon="6.69961">
        <ele>2405.2</ele>
        <time>2017-08-12T14:08:43Z</time>
      </trkpt>
      <trkpt lat="44.22433" lon="6.6996">
        <ele>2403.7</ele>
        <time>2017-08-12T14:08:57Z</time>
      </trkpt>
      <trkpt lat="44.22443" lon="6.69964">
        <ele>2403.1</ele>
        <time>2017-08-12T14:09:07Z</time>
      </trkpt>
      <trkpt lat="44.22452" lon="6.69967">
        <ele>2402.4</ele>
        <time>2017-08-12T14:09:15Z</time>
      </trkpt>
      <trkpt lat="44.22461" lon="6.69971">
        <ele>2400.8</ele>
        <time>2017-08-12T14:09:38Z</time>
      </trkpt>
      <trkpt lat="44.22469" lon="6.69966">
        <ele>2399.8</ele>
        <time>2017-08-12T14:09:49Z</time>
      </trkpt>
      <trkpt lat="44.22478" lon="6.6996">
        <ele>2397.7</ele>
        <time>2017-08-12T14:10:01Z</time>
      </trkpt>
      <trkpt lat="44.22486" lon="6.69965">
        <ele>2391.4</ele>
        <time>2017-08-12T14:13:25Z</time>
      </trkpt>
      <trkpt lat="44.22495" lon="6.69958">
        <ele>2391.3</ele>
        <time>2017-08-12T14:13:34Z</time>
      </trkpt>
      <trkpt lat="44.22504" lon="6.69957">
        <ele>2390.7</ele>
        <time>2017-08-12T14:14:02Z</time>
      </trkpt>
      <trkpt lat="44.2251" lon="6.69968">
        <ele>2389.1</ele>
        <time>2017-08-12T14:20:56Z</time>
      </trkpt>
      <trkpt lat="44.22517" lon="6.69977">
        <ele>2389</ele>
        <time>2017-08-12T14:21:05Z</time>
      </trkpt>
      <trkpt lat="44.22526" lon="6.69979">
        <ele>2388.2</ele>
        <time>2017-08-12T14:21:12Z</time>
      </trkpt>
      <trkpt lat="44.22536" lon="6.69982">
        <ele>2386.9</ele>
        <time>2017-08-12T14:21:20Z</time>
      </trkpt>
      <trkpt lat="44.22546" lon="6.69982">
        <ele>2385</ele>
        <time>2017-08-12T14:21:29Z</time>
      </trkpt>
      <trkpt lat="44.22555" lon="6.69984">
        <ele>2383.4</ele>
        <time>2017-08-12T14:21:38Z</time>
      </trkpt>
      <trkpt lat="44.22563" lon="6.69979">
        <ele>2381.9</ele>
        <time>2017-08-12T14:21:48Z</time>
      </trkpt>
      <trkpt lat="44.22572" lon="6.69973">
        <ele>2379.7</ele>
        <time>2017-08-12T14:21:59Z</time>
      </trkpt>
      <trkpt lat="44.22581" lon="6.69976">
        <ele>2377.8</ele>
        <time>2017-08-12T14:22:10Z</time>
      </trkpt>
      <trkpt lat="44.2259" lon="6.69971">
        <ele>2376.2</ele>
        <time>2017-08-12T14:22:22Z</time>
      </trkpt>
      <trkpt lat="44.22599" lon="6.69972">
        <ele>2374.1</ele>
        <time>2017-08-12T14:22:36Z</time>
      </trkpt>
      <trkpt lat="44.22609" lon="6.69974">
        <ele>2372.4</ele>
        <time>2017-08-12T14:22:46Z</time>
      </trkpt>
      <trkpt lat="44.22618" lon="6.69973">
        <ele>2370.8</ele>
        <time>2017-08-12T14:22:57Z</time>
      </trkpt>
      <trkpt lat="44.22627" lon="6.69975">
        <ele>2368.6</ele>
        <time>2017-08-12T14:23:14Z</time>
      </trkpt>
      <trkpt lat="44.22636" lon="6.69978">
        <ele>2367</ele>
        <time>2017-08-12T14:23:27Z</time>
      </trkpt>
      <trkpt lat="44.22645" lon="6.69978">
        <ele>2365.7</ele>
        <time>2017-08-12T14:23:37Z</time>
      </trkpt>
      <trkpt lat="44.22653" lon="6.69985">
        <ele>2363.8</ele>
        <time>2017-08-12T14:23:51Z</time>
      </trkpt>
      <trkpt lat="44.22661" lon="6.69992">
        <ele>2363.3</ele>
        <time>2017-08-12T14:24:02Z</time>
      </trkpt>
      <trkpt lat="44.22669" lon="6.69998">
        <ele>2363.1</ele>
        <time>2017-08-12T14:24:12Z</time>
      </trkpt>
      <trkpt lat="44.22677" lon="6.70006">
        <ele>2363</ele>
        <time>2017-08-12T14:24:30Z</time>
      </trkpt>
      <trkpt lat="44.22685" lon="6.70009">
        <ele>2363</ele>
        <time>2017-08-12T14:24:39Z</time>
      </trkpt>
      <trkpt lat="44.22694" lon="6.70011">
        <ele>2360.3</ele>
        <time>2017-08-12T14:26:30Z</time>
      </trkpt>
      <trkpt lat="44.22702" lon="6.70017">
        <ele>2359.9</ele>
        <time>2017-08-12T14:26:49Z</time>
      </trkpt>
      <trkpt lat="44.22711" lon="6.70024">
        <ele>2358.9</ele>
        <time>2017-08-12T14:27:01Z</time>
      </trkpt>
      <trkpt lat="44.22719" lon="6.70029">
        <ele>2357.6</ele>
        <time>2017-08-12T14:27:14Z</time>
      </trkpt>
      <trkpt lat="44.22725" lon="6.7004">
        <ele>2355.6</ele>
        <time>2017-08-12T14:27:27Z</time>
      </trkpt>
      <trkpt lat="44.22733" lon="6.70047">
        <ele>2353.6</ele>
        <time>2017-08-12T14:27:37Z</time>
      </trkpt>
      <trkpt lat="44.22742" lon="6.70054">
        <ele>2351.8</ele>
        <time>2017-08-12T14:27:47Z</time>
      </trkpt>
      <trkpt lat="44.22749" lon="6.70062">
        <ele>2349.8</ele>
        <time>2017-08-12T14:28:01Z</time>
      </trkpt>
      <trkpt lat="44.22758" lon="6.70064">
        <ele>2348.5</ele>
        <time>2017-08-12T14:28:10Z</time>
      </trkpt>
      <trkpt lat="44.22767" lon="6.70067">
        <ele>2346.8</ele>
        <time>2017-08-12T14:28:20Z</time>
      </trkpt>
      <trkpt lat="44.22776" lon="6.70066">
        <ele>2344.6</ele>
        <time>2017-08-12T14:28:31Z</time>
      </trkpt>
      <trkpt lat="44.22785" lon="6.70071">
        <ele>2342.1</ele>
        <time>2017-08-12T14:28:44Z</time>
      </trkpt>
      <trkpt lat="44.22794" lon="6.70075">
        <ele>2339.1</ele>
        <time>2017-08-12T14:28:57Z</time>
      </trkpt>
      <trkpt lat="44.22804" lon="6.70076">
        <ele>2337.3</ele>
        <time>2017-08-12T14:29:07Z</time>
      </trkpt>
      <trkpt lat="44.22813" lon="6.70081">
        <ele>2335.7</ele>
        <time>2017-08-12T14:29:16Z</time>
      </trkpt>
      <trkpt lat="44.2282" lon="6.70088">
        <ele>2334.2</ele>
        <time>2017-08-12T14:29:25Z</time>
      </trkpt>
      <trkpt lat="44.2283" lon="6.70091">
        <ele>2332.7</ele>
        <time>2017-08-12T14:29:36Z</time>
      </trkpt>
      <trkpt lat="44.22838" lon="6.70095">
        <ele>2331.2</ele>
        <time>2017-08-12T14:29:46Z</time>
      </trkpt>
      <trkpt lat="44.22847" lon="6.701">
        <ele>2329.9</ele>
        <time>2017-08-12T14:29:57Z</time>
      </trkpt>
      <trkpt lat="44.22856" lon="6.70106">
        <ele>2329</ele>
        <time>2017-08-12T14:30:06Z</time>
      </trkpt>
      <trkpt lat="44.22864" lon="6.70112">
        <ele>2328.4</ele>
        <time>2017-08-12T14:30:14Z</time>
      </trkpt>
      <trkpt lat="44.22873" lon="6.70115">
        <ele>2327.3</ele>
        <time>2017-08-12T14:30:24Z</time>
      </trkpt>
      <trkpt lat="44.22882" lon="6.70119">
        <ele>2326.6</ele>
        <time>2017-08-12T14:30:33Z</time>
      </trkpt>
      <trkpt lat="44.22891" lon="6.70124">
        <ele>2326</ele>
        <time>2017-08-12T14:30:41Z</time>
      </trkpt>
      <trkpt lat="44.22896" lon="6.70134">
        <ele>2325.5</ele>
        <time>2017-08-12T14:30:53Z</time>
      </trkpt>
      <trkpt lat="44.22905" lon="6.70138">
        <ele>2324.8</ele>
        <time>2017-08-12T14:31:01Z</time>
      </trkpt>
      <trkpt lat="44.22914" lon="6.70142">
        <ele>2324</ele>
        <time>2017-08-12T14:31:11Z</time>
      </trkpt>
      <trkpt lat="44.22923" lon="6.70142">
        <ele>2323.3</ele>
        <time>2017-08-12T14:31:21Z</time>
      </trkpt>
      <trkpt lat="44.22933" lon="6.70145">
        <ele>2322.4</ele>
        <time>2017-08-12T14:31:31Z</time>
      </trkpt>
      <trkpt lat="44.22941" lon="6.70153">
        <ele>2321.3</ele>
        <time>2017-08-12T14:31:41Z</time>
      </trkpt>
      <trkpt lat="44.22949" lon="6.70158">
        <ele>2320.6</ele>
        <time>2017-08-12T14:31:49Z</time>
      </trkpt>
      <trkpt lat="44.22958" lon="6.70163">
        <ele>2320.1</ele>
        <time>2017-08-12T14:31:58Z</time>
      </trkpt>
      <trkpt lat="44.22968" lon="6.70167">
        <ele>2319.9</ele>
        <time>2017-08-12T14:32:06Z</time>
      </trkpt>
      <trkpt lat="44.22978" lon="6.70169">
        <ele>2319.7</ele>
        <time>2017-08-12T14:32:15Z</time>
      </trkpt>
      <trkpt lat="44.22987" lon="6.7017">
        <ele>2318.9</ele>
        <time>2017-08-12T14:32:24Z</time>
      </trkpt>
      <trkpt lat="44.22996" lon="6.70175">
        <ele>2317.8</ele>
        <time>2017-08-12T14:32:38Z</time>
      </trkpt>
      <trkpt lat="44.23005" lon="6.70175">
        <ele>2315.1</ele>
        <time>2017-08-12T14:33:25Z</time>
      </trkpt>
      <trkpt lat="44.23014" lon="6.70178">
        <ele>2314.6</ele>
        <time>2017-08-12T14:33:35Z</time>
      </trkpt>
      <trkpt lat="44.23024" lon="6.70178">
        <ele>2313.7</ele>
        <time>2017-08-12T14:33:44Z</time>
      </trkpt>
      <trkpt lat="44.23032" lon="6.70174">
        <ele>2312.4</ele>
        <time>2017-08-12T14:33:54Z</time>
      </trkpt>
      <trkpt lat="44.23041" lon="6.70168">
        <ele>2311.1</ele>
        <time>2017-08-12T14:34:05Z</time>
      </trkpt>
      <trkpt lat="44.23049" lon="6.70161">
        <ele>2309.9</ele>
        <time>2017-08-12T14:34:15Z</time>
      </trkpt>
      <trkpt lat="44.23058" lon="6.70156">
        <ele>2308.6</ele>
        <time>2017-08-12T14:34:27Z</time>
      </trkpt>
      <trkpt lat="44.23064" lon="6.70147">
        <ele>2307.1</ele>
        <time>2017-08-12T14:34:53Z</time>
      </trkpt>
      <trkpt lat="44.23069" lon="6.70159">
        <ele>2306.1</ele>
        <time>2017-08-12T14:37:26Z</time>
      </trkpt>
      <trkpt lat="44.23076" lon="6.70169">
        <ele>2305.2</ele>
        <time>2017-08-12T14:37:34Z</time>
      </trkpt>
      <trkpt lat="44.2308" lon="6.7018">
        <ele>2303.5</ele>
        <time>2017-08-12T14:37:44Z</time>
      </trkpt>
      <trkpt lat="44.23089" lon="6.7018">
        <ele>2301.8</ele>
        <time>2017-08-12T14:37:55Z</time>
      </trkpt>
      <trkpt lat="44.23098" lon="6.70178">
        <ele>2298.9</ele>
        <time>2017-08-12T14:38:18Z</time>
      </trkpt>
      <trkpt lat="44.23105" lon="6.70185">
        <ele>2296.9</ele>
        <time>2017-08-12T14:38:34Z</time>
      </trkpt>
      <trkpt lat="44.23115" lon="6.70181">
        <ele>2294.1</ele>
        <time>2017-08-12T14:38:49Z</time>
      </trkpt>
      <trkpt lat="44.23123" lon="6.70187">
        <ele>2291.5</ele>
        <time>2017-08-12T14:39:03Z</time>
      </trkpt>
      <trkpt lat="44.2313" lon="6.70195">
        <ele>2288.5</ele>
        <time>2017-08-12T14:39:21Z</time>
      </trkpt>
      <trkpt lat="44.23132" lon="6.70208">
        <ele>2285.1</ele>
        <time>2017-08-12T14:39:49Z</time>
      </trkpt>
      <trkpt lat="44.23139" lon="6.70218">
        <ele>2283</ele>
        <time>2017-08-12T14:40:04Z</time>
      </trkpt>
      <trkpt lat="44.23142" lon="6.70229">
        <ele>2278.7</ele>
        <time>2017-08-12T14:40:30Z</time>
      </trkpt>
      <trkpt lat="44.23143" lon="6.70242">
        <ele>2276.9</ele>
        <time>2017-08-12T14:40:40Z</time>
      </trkpt>
      <trkpt lat="44.23148" lon="6.70252">
        <ele>2273</ele>
        <time>2017-08-12T14:41:01Z</time>
      </trkpt>
      <trkpt lat="44.23151" lon="6.70264">
        <ele>2268.9</ele>
        <time>2017-08-12T14:41:23Z</time>
      </trkpt>
      <trkpt lat="44.23158" lon="6.70273">
        <ele>2267.3</ele>
        <time>2017-08-12T14:41:36Z</time>
      </trkpt>
      <trkpt lat="44.23166" lon="6.7028">
        <ele>2265.9</ele>
        <time>2017-08-12T14:41:47Z</time>
      </trkpt>
      <trkpt lat="44.23172" lon="6.7029">
        <ele>2264.1</ele>
        <time>2017-08-12T14:41:56Z</time>
      </trkpt>
      <trkpt lat="44.23179" lon="6.70298">
        <ele>2261.8</ele>
        <time>2017-08-12T14:42:07Z</time>
      </trkpt>
      <trkpt lat="44.23188" lon="6.70303">
        <ele>2259.5</ele>
        <time>2017-08-12T14:42:18Z</time>
      </trkpt>
      <trkpt lat="44.23196" lon="6.7031">
        <ele>2257.3</ele>
        <time>2017-08-12T14:42:29Z</time>
      </trkpt>
      <trkpt lat="44.23204" lon="6.70317">
        <ele>2255.1</ele>
        <time>2017-08-12T14:42:39Z</time>
      </trkpt>
      <trkpt lat="44.23209" lon="6.70329">
        <ele>2252.8</ele>
        <time>2017-08-12T14:42:50Z</time>
      </trkpt>
      <trkpt lat="44.23214" lon="6.70339">
        <ele>2250.8</ele>
        <time>2017-08-12T14:43:00Z</time>
      </trkpt>
      <trkpt lat="44.2322" lon="6.70349">
        <ele>2249.1</ele>
        <time>2017-08-12T14:43:11Z</time>
      </trkpt>
      <trkpt lat="44.23229" lon="6.70353">
        <ele>2247</ele>
        <time>2017-08-12T14:43:24Z</time>
      </trkpt>
      <trkpt lat="44.23237" lon="6.70345">
        <ele>2243.6</ele>
        <time>2017-08-12T14:44:11Z</time>
      </trkpt>
      <trkpt lat="44.23245" lon="6.70341">
        <ele>2243.2</ele>
        <time>2017-08-12T14:44:33Z</time>
      </trkpt>
      <trkpt lat="44.23253" lon="6.70332">
        <ele>2243.1</ele>
        <time>2017-08-12T14:44:55Z</time>
      </trkpt>
      <trkpt lat="44.23261" lon="6.70326">
        <ele>2243.1</ele>
        <time>2017-08-12T14:45:05Z</time>
      </trkpt>
      <trkpt lat="44.23269" lon="6.70321">
        <ele>2243.1</ele>
        <time>2017-08-12T14:45:13Z</time>
      </trkpt>
      <trkpt lat="44.23278" lon="6.70316">
        <ele>2243.1</ele>
        <time>2017-08-12T14:45:21Z</time>
      </trkpt>
      <trkpt lat="44.23287" lon="6.70309">
        <ele>2243.1</ele>
        <time>2017-08-12T14:45:47Z</time>
      </trkpt>
      <trkpt lat="44.23295" lon="6.70304">
        <ele>2243.1</ele>
        <time>2017-08-12T14:45:56Z</time>
      </trkpt>
      <trkpt lat="44.23304" lon="6.703">
        <ele>2243.1</ele>
        <time>2017-08-12T14:46:07Z</time>
      </trkpt>
      <trkpt lat="44.23314" lon="6.70302">
        <ele>2243</ele>
        <time>2017-08-12T14:46:18Z</time>
      </trkpt>
      <trkpt lat="44.23323" lon="6.70304">
        <ele>2243</ele>
        <time>2017-08-12T14:46:28Z</time>
      </trkpt>
      <trkpt lat="44.23333" lon="6.70303">
        <ele>2243.2</ele>
        <time>2017-08-12T14:46:37Z</time>
      </trkpt>
      <trkpt lat="44.23342" lon="6.70304">
        <ele>2243.1</ele>
        <time>2017-08-12T14:46:45Z</time>
      </trkpt>
      <trkpt lat="44.23352" lon="6.70307">
        <ele>2241.5</ele>
        <time>2017-08-12T14:46:55Z</time>
      </trkpt>
      <trkpt lat="44.23357" lon="6.70309">
        <ele>2242.2</ele>
        <time>2017-08-12T14:47:01Z</time>
      </trkpt>
    </trkseg>
  </trk>
</gpx>